Time;durP1;ratioP1;P1;durP2;ratioP2;P2;SDS_P1;SDS_P2;PMS_P1;PMS_P2;Temp;Humidity;BMP_temperature;BMP_pressure;BME280_temperature;BME280_humidity;BME280_pressure;Samples;Min_cycle;Max_cycle;Signal;HPM_P1;HPM_P2
2023/04/07 00:03:05;;;;;;;28.25;17.77;;;;;;;3.30;54.64;97443.91;10404873;28;20140;-50
2023/04/07 00:08:04;;;;;;;24.30;17.10;;;;;;;3.09;55.00;97449.41;10404726;28;20131;-52
2023/04/07 00:13:03;;;;;;;26.90;17.85;;;;;;;3.05;54.94;97431.34;10406132;28;20052;-52
2023/04/07 00:18:02;;;;;;;26.27;17.05;;;;;;;3.22;54.78;97442.88;10403031;28;20124;-52
2023/04/07 00:23:01;;;;;;;;;;;;;;;3.35;54.02;97437.16;10406094;28;20907;-49
2023/04/07 00:28:00;;;;;;;24.70;16.00;;;;;;;3.46;53.90;97436.56;10403804;28;19928;-48
2023/04/07 00:32:59;;;;;;;25.33;14.65;;;;;;;3.56;53.13;97441.03;10405846;28;20052;-49
2023/04/07 00:37:58;;;;;;;23.65;14.25;;;;;;;3.60;53.40;97433.44;10404290;28;20131;-48
2023/04/07 00:42:57;;;;;;;21.13;14.80;;;;;;;3.54;52.84;97427.31;10404012;28;20024;-48
2023/04/07 00:47:57;;;;;;;22.10;14.25;;;;;;;3.46;52.83;97411.75;10404218;28;20045;-49
2023/04/07 00:52:56;;;;;;;21.77;14.30;;;;;;;3.48;52.96;97428.06;10404947;28;20127;-50
2023/04/07 00:57:55;;;;;;;30.45;18.10;;;;;;;3.36;52.82;97428.66;10403175;28;20808;-51
2023/04/07 01:03:00;;;;;;;26.23;17.73;;;;;;;3.36;52.87;97433.78;10403206;28;20587;-50
2023/04/07 01:08:37;;;;;;;23.88;16.33;;;;;;;3.40;52.78;97419.31;10403242;28;20821;-48
2023/04/07 01:13:52;;;;;;;24.38;15.23;;;;;;;3.31;52.06;97412.31;10402605;28;20139;-50
2023/04/07 01:18:56;;;;;;;28.98;18.13;;;;;;;3.34;53.31;97420.06;10405502;28;20107;-50
2023/04/07 01:23:57;;;;;;;27.40;18.33;;;;;;;3.26;53.67;97416.47;10403291;28;20163;-48
2023/04/07 01:29:06;;;;;;;23.27;16.42;;;;;;;3.19;54.35;97415.47;10401517;28;20128;-47
2023/04/07 01:34:08;;;;;;;24.67;16.80;;;;;;;2.92;55.81;97415.69;10401716;28;20119;-47
2023/04/07 01:39:08;;;;;;;29.98;19.00;;;;;;;2.63;56.80;97412.44;10403535;28;20111;-50
2023/04/07 01:44:08;;;;;;;27.38;18.98;;;;;;;2.62;57.38;97409.84;10403421;28;20593;-50
2023/04/07 01:49:07;;;;;;;27.45;18.02;;;;;;;2.51;57.67;97412.13;10402352;28;20124;-50
2023/04/07 01:54:07;;;;;;;28.58;18.10;;;;;;;2.48;58.08;97412.03;10385648;28;20135;-49
2023/04/07 01:59:06;;;;;;;19.92;13.63;;;;;;;2.53;57.58;97416.44;10401014;28;20104;-50
2023/04/07 02:04:17;;;;;;;20.08;13.88;;;;;;;2.49;56.78;97409.53;10402985;28;20060;-50
2023/04/07 02:09:20;;;;;;;22.85;14.27;;;;;;;2.47;56.49;97406.06;10402358;28;20111;-50
2023/04/07 02:14:21;;;;;;;22.88;14.95;;;;;;;2.35;56.48;97377.59;10401043;28;20147;-48
2023/04/07 02:19:20;;;;;;;26.17;15.60;;;;;;;2.43;56.06;97405.94;10409427;28;20120;-50
2023/04/07 02:24:20;;;;;;;25.13;15.23;;;;;;;2.36;56.43;97399.81;10410547;28;20063;-49
2023/04/07 02:29:19;;;;;;;21.85;13.63;;;;;;;2.29;56.37;97395.34;10410000;28;20159;-50
2023/04/07 02:34:18;;;;;;;20.50;12.63;;;;;;;2.23;56.73;97397.75;10411325;28;20521;-50
2023/04/07 02:39:17;;;;;;;17.30;11.70;;;;;;;2.20;56.50;97390.84;10412661;28;20526;-50
2023/04/07 02:44:16;;;;;;;17.67;12.10;;;;;;;2.20;56.23;97405.34;10410807;28;20483;-48
2023/04/07 02:49:15;;;;;;;19.83;12.57;;;;;;;2.15;56.29;97398.41;10412031;28;20179;-50
2023/04/07 02:54:14;;;;;;;20.30;13.68;;;;;;;2.13;56.46;97400.06;10411661;28;20043;-48
2023/04/07 02:59:13;;;;;;;21.25;13.77;;;;;;;2.03;56.97;97404.91;10392751;28;20032;-49
2023/04/07 03:04:12;;;;;;;21.45;14.07;;;;;;;2.05;57.22;97409.25;10410899;28;20123;-48
2023/04/07 03:09:11;;;;;;;21.92;14.85;;;;;;;2.04;57.05;97399.81;10412078;28;20051;-50
2023/04/07 03:14:10;;;;;;;31.35;17.33;;;;;;;1.99;57.62;97398.84;10411357;28;20076;-50
2023/04/07 03:19:09;;;;;;;32.00;18.85;;;;;;;1.93;58.30;97406.38;10410466;28;20131;-52
2023/04/07 03:24:08;;;;;;;45.28;24.05;;;;;;;1.83;58.69;97399.25;10411833;28;20079;-50
2023/04/07 03:29:07;;;;;;;38.53;23.75;;;;;;;1.72;59.20;97407.50;10412760;28;20040;-52
2023/04/07 03:34:06;;;;;;;43.30;27.25;;;;;;;1.59;60.50;97404.53;10412162;28;20078;-53
2023/04/07 03:39:05;;;;;;;44.33;26.33;;;;;;;1.30;62.54;97423.34;10409653;28;20456;-53
2023/04/07 03:44:04;;;;;;;70.55;38.30;;;;;;;1.36;62.25;97411.53;10408229;28;20094;-52
2023/04/07 03:49:03;;;;;;;47.60;25.77;;;;;;;1.30;62.72;97422.47;10409352;28;20174;-52
2023/04/07 03:54:02;;;;;;;38.15;22.83;;;;;;;1.31;62.53;97422.50;10409425;28;20047;-51
2023/04/07 03:59:01;;;;;;;;;;;;;;;1.31;62.34;97427.59;10408587;28;20059;-52
2023/04/07 04:04:01;;;;;;;34.25;24.00;;;;;;;1.35;62.41;97431.13;10408369;28;19924;-51
2023/04/07 04:09:00;;;;;;;52.05;25.92;;;;;;;1.34;62.53;97431.94;10408694;28;20107;-51
2023/04/07 04:13:59;;;;;;;63.03;37.85;;;;;;;1.26;63.20;97444.50;10408493;28;20025;-52
2023/04/07 04:18:58;;;;;;;42.25;26.90;;;;;;;1.37;62.41;97447.41;10407855;28;20024;-52
2023/04/07 04:23:56;;;;;;;47.47;28.73;;;;;;;1.20;63.17;97417.88;10406933;28;20606;-52
2023/04/07 04:28:55;;;;;;;43.20;29.58;;;;;;;1.56;62.70;97448.81;10406595;28;20044;-51
2023/04/07 04:33:54;;;;;;;57.67;33.33;;;;;;;1.60;63.01;97453.19;10407467;28;20107;-51
2023/04/07 04:38:53;;;;;;;41.03;25.38;;;;;;;1.58;61.72;97465.06;10407925;28;20056;-50
2023/04/07 04:43:52;;;;;;;64.38;35.85;;;;;;;1.73;61.79;97465.50;10407185;28;20123;-51
2023/04/07 04:48:52;;;;;;;53.88;29.00;;;;;;;2.10;61.94;97463.13;10408812;28;20112;-52
2023/04/07 04:53:51;;;;;;;42.15;24.65;;;;;;;2.34;60.21;97470.59;10384278;28;20068;-52
2023/04/07 04:58:50;;;;;;;54.97;30.73;;;;;;;2.43;59.52;97431.56;10409566;28;20074;-52
2023/04/07 05:03:49;;;;;;;48.20;27.10;;;;;;;2.96;58.50;97435.44;10408921;28;20029;-51
2023/04/07 05:08:48;;;;;;;54.17;28.88;;;;;;;3.47;57.93;97477.63;10401161;28;20064;-50
2023/04/07 05:13:47;;;;;;;25.98;15.55;;;;;;;3.82;53.32;97474.94;10403987;28;20024;-53
2023/04/07 05:18:46;;;;;;;;;;;;;;;4.05;52.45;97473.72;10388661;28;20087;-52
2023/04/07 05:23:45;;;;;;;42.08;26.45;;;;;;;4.10;50.70;97419.88;10404630;28;20032;-53
2023/04/07 05:28:44;;;;;;;33.67;20.63;;;;;;;4.76;51.33;97474.16;10405070;28;20465;-52
2023/04/07 05:33:43;;;;;;;68.53;32.67;;;;;;;5.20;51.43;97463.78;10405424;28;20478;-49
2023/04/07 05:38:42;;;;;;;34.78;21.23;;;;;;;5.47;48.74;97466.78;10404049;28;20107;-49
2023/04/07 05:43:41;;;;;;;49.85;24.88;;;;;;;5.62;47.17;97454.97;10402239;28;20029;-50
2023/04/07 05:48:40;;;;;;;42.33;23.20;;;;;;;5.84;47.60;97461.28;10402822;28;20071;-49
2023/04/07 05:53:39;;;;;;;35.45;20.67;;;;;;;6.06;46.12;97465.84;10408694;28;20131;-49
2023/04/07 05:58:38;;;;;;;30.92;18.63;;;;;;;6.17;46.98;97451.38;10413346;28;20446;-50
2023/04/07 06:03:39;;;;;;;;;;;;;;;6.49;46.25;97470.59;10410016;28;20112;-51
2023/04/07 06:08:38;;;;;;;26.00;15.25;;;;;;;6.92;46.52;97471.03;10411767;28;20018;-50
2023/04/07 06:13:37;;;;;;;17.13;10.15;;;;;;;7.02;41.99;97468.53;10442814;28;20050;-50
2023/04/07 06:18:36;;;;;;;17.05;11.70;;;;;;;7.20;41.80;97456.66;10412257;28;20036;-51
2023/04/07 06:23:35;;;;;;;12.25;9.18;;;;;;;7.25;41.16;97449.78;10411708;28;20048;-50
2023/04/07 06:28:34;;;;;;;18.70;10.25;;;;;;;7.43;42.12;97469.75;10409435;28;20123;-50
2023/04/07 06:33:33;;;;;;;20.83;11.30;;;;;;;7.83;42.00;97462.25;10410342;28;20159;-51
2023/04/07 06:38:32;;;;;;;15.57;8.88;;;;;;;8.23;39.36;97463.28;10413744;28;20028;-50
2023/04/07 06:43:31;;;;;;;15.50;10.75;;;;;;;8.43;39.43;97458.16;10410866;28;20060;-50
2023/04/07 06:48:30;;;;;;;20.70;12.13;;;;;;;8.39;36.41;97446.09;10410834;28;20458;-50
2023/04/07 06:53:29;;;;;;;13.27;9.90;;;;;;;8.47;37.69;97466.78;10404617;28;20051;-50
2023/04/07 06:58:28;;;;;;;15.23;9.23;;;;;;;8.87;38.73;97472.03;10412864;28;20060;-51
2023/04/07 07:03:28;;;;;;;19.55;8.93;;;;;;;9.05;36.87;97461.69;10410510;28;20071;-51
2023/04/07 07:08:27;;;;;;;14.75;8.60;;;;;;;9.21;37.73;97474.63;10412587;28;20087;-51
2023/04/07 07:13:27;;;;;;;11.73;8.15;;;;;;;9.29;37.52;97481.56;10409642;28;20068;-52
2023/04/07 07:18:26;;;;;;;16.52;8.43;;;;;;;9.53;37.42;97488.44;10410085;28;20066;-49
2023/04/07 07:23:25;;;;;;;16.73;10.20;;;;;;;9.77;37.30;97487.56;10410344;28;20036;-49
2023/04/07 07:28:24;;;;;;;48.28;30.05;;;;;;;9.54;34.81;97484.16;10412087;28;20565;-50
2023/04/07 07:33:23;;;;;;;27.27;17.83;;;;;;;9.33;35.41;97485.91;10412040;28;20474;-49
2023/04/07 07:38:22;;;;;;;14.00;8.50;;;;;;;9.59;35.47;97492.78;10409515;28;20024;-51
2023/04/07 07:43:21;;;;;;;18.80;11.80;;;;;;;9.75;36.38;97486.72;10407757;28;20532;-51
2023/04/07 07:48:20;;;;;;;14.23;8.57;;;;;;;10.12;36.16;97493.50;10408478;28;20028;-49
2023/04/07 07:53:19;;;;;;;14.55;8.48;;;;;;;10.52;34.90;97491.63;10405680;28;20219;-50
2023/04/07 07:58:17;;;;;;;16.60;8.48;;;;;;;10.88;34.39;97491.44;10403399;28;20486;-51
2023/04/07 08:03:21;;;;;;;13.18;8.93;;;;;;;11.14;35.24;97497.31;10403076;28;20036;-51
2023/04/07 08:08:20;;;;;;;17.48;9.23;;;;;;;11.27;34.73;97503.28;10404621;28;20068;-52
2023/04/07 08:13:19;;;;;;;13.18;9.30;;;;;;;10.98;33.73;97468.00;10401102;28;20031;-52
2023/04/07 08:18:18;;;;;;;16.45;9.25;;;;;;;10.89;33.78;97511.34;10401087;28;20036;-52
2023/04/07 08:23:17;;;;;;;18.95;13.95;;;;;;;10.61;32.98;97511.44;10401438;28;20422;-51
2023/04/07 08:28:16;;;;;;;13.40;8.40;;;;;;;10.47;34.57;97498.56;10403199;28;20104;-52
2023/04/07 08:33:15;;;;;;;32.70;20.42;;;;;;;9.96;34.13;97510.84;10403302;28;20040;-50
2023/04/07 08:38:14;;;;;;;13.18;8.10;;;;;;;10.05;34.84;97513.44;10402925;28;20119;-51
2023/04/07 08:43:13;;;;;;;11.63;8.27;;;;;;;9.87;33.84;97506.53;10402909;28;20036;-49
2023/04/07 08:48:17;;;;;;;31.27;20.30;;;;;;;9.93;33.75;97510.84;10405416;28;20048;-50
2023/04/07 08:53:22;;;;;;;13.18;9.23;;;;;;;10.26;34.15;97509.00;10405462;28;20071;-52
2023/04/07 08:58:21;;;;;;;19.35;13.45;;;;;;;10.75;33.34;97501.88;10406107;28;20056;-51
2023/04/07 09:03:22;;;;;;;14.18;9.18;;;;;;;11.13;32.37;97494.75;10406138;28;20059;-52
2023/04/07 09:08:20;;;;;;;12.32;7.35;;;;;;;10.79;31.62;97505.31;10405334;28;20060;-52
2023/04/07 09:13:20;;;;;;;9.80;6.85;;;;;;;11.35;31.13;97506.69;10406310;28;20068;-51
2023/04/07 09:18:19;;;;;;;;;;;;;;;11.05;31.95;97512.97;10406405;28;20458;-51
2023/04/07 09:23:32;;;;;;;17.35;7.80;;;;;;;11.13;31.63;97506.00;10404201;28;19959;-49
2023/04/07 09:28:40;;;;;;;23.27;9.55;;;;;;;11.64;32.60;97515.94;10394303;28;20116;-51
2023/04/07 09:33:39;;;;;;;12.10;7.95;;;;;;;11.53;30.92;97502.22;10405668;28;20071;-52
2023/04/07 09:38:40;;;;;;;12.73;7.35;;;;;;;12.11;32.18;97506.84;10404223;28;20052;-52
2023/04/07 09:43:41;;;;;;;9.43;6.43;;;;;;;12.09;31.38;97503.38;10406069;28;20071;-52
2023/04/07 09:48:41;;;;;;;10.15;7.60;;;;;;;11.10;30.94;97510.31;10404437;28;20659;-51
2023/04/07 09:53:46;;;;;;;11.55;7.68;;;;;;;11.34;31.69;97514.47;10404308;28;20536;-52
2023/04/07 09:58:46;;;;;;;12.63;8.30;;;;;;;11.57;32.03;97522.09;10403949;28;20075;-52
2023/04/07 10:03:46;;;;;;;14.15;8.43;;;;;;;10.97;32.72;97517.34;10405951;28;20067;-51
2023/04/07 10:08:45;;;;;;;10.98;8.10;;;;;;;11.32;32.18;97522.31;10404513;28;20128;-51
2023/04/07 10:13:45;;;;;;;13.00;10.00;;;;;;;11.13;32.41;97507.72;10405082;28;20115;-52
2023/04/07 10:18:45;;;;;;;12.45;8.75;;;;;;;12.09;33.14;97526.81;10404481;28;20048;-51
2023/04/07 10:24:03;;;;;;;12.15;8.48;;;;;;;12.80;31.25;97524.22;10404804;28;20079;-50
2023/04/07 10:29:10;;;;;;;11.65;9.20;;;;;;;12.38;31.37;97530.84;10403561;28;20131;-51
2023/04/07 10:34:09;;;;;;;11.05;8.27;;;;;;;12.49;31.62;97527.22;10404852;28;20482;-52
2023/04/07 10:39:08;;;;;;;;;;;;;;;12.19;30.74;97522.34;10406921;28;20449;-51
2023/04/07 10:44:42;;;;;;;11.45;8.38;;;;;;;12.61;31.92;97531.41;10412235;28;20584;-51
2023/04/07 10:50:10;;;;;;;14.80;9.05;;;;;;;12.76;31.08;97542.50;10411361;28;20064;-52
2023/04/07 10:55:53;;;;;;;14.27;10.02;;;;;;;12.25;31.00;97548.28;10411107;28;20056;-52
2023/04/07 11:01:07;;;;;;;16.77;12.63;;;;;;;12.07;31.69;97544.16;10282955;28;20065;-50
2023/04/07 11:06:12;;;;;;;14.55;9.52;;;;;;;11.39;33.45;97544.75;10389548;28;20125;-52
2023/04/07 11:11:13;;;;;;;14.52;9.13;;;;;;;10.38;34.00;97547.91;10411234;28;20094;-52
2023/04/07 11:16:13;;;;;;;18.13;10.20;;;;;;;10.45;35.63;97549.59;10410733;28;20470;-52
2023/04/07 11:21:17;;;;;;;10.20;7.75;;;;;;;10.61;34.42;97553.84;10411269;28;20155;-51
2023/04/07 11:26:16;;;;;;;12.20;8.52;;;;;;;10.22;36.25;97554.00;10410631;28;20103;-51
2023/04/07 11:31:25;;;;;;;;;;;;;;;10.07;35.37;97552.28;10411045;28;20470;-50
2023/04/07 11:36:31;;;;;;;13.48;8.75;;;;;;;10.24;37.02;97555.72;10412441;28;19951;-51
2023/04/07 11:41:32;;;;;;;10.75;7.93;;;;;;;9.48;36.35;97567.03;10413074;28;20068;-51
2023/04/07 11:46:31;;;;;;;13.43;9.00;;;;;;;9.11;37.44;97562.66;10412592;28;20546;-51
2023/04/07 11:51:30;;;;;;;18.08;9.32;;;;;;;8.99;37.08;97528.13;10411226;28;20036;-51
2023/04/07 11:56:29;;;;;;;13.90;10.10;;;;;;;9.27;38.02;97521.25;10411343;28;20111;-51
2023/04/07 12:01:43;;;;;;;;;;;;;;;9.66;37.25;97554.09;10410953;28;20549;-51
2023/04/07 12:06:44;;;;;;;18.05;12.43;;;;;;;10.00;37.37;97541.06;10411334;28;20008;-51
2023/04/07 12:11:48;;;;;;;16.40;11.35;;;;;;;9.69;37.69;97543.72;10411741;28;20067;-51
2023/04/07 12:16:47;;;;;;;15.68;11.20;;;;;;;9.96;37.26;97542.81;10411889;28;20060;-51
2023/04/07 12:21:46;;;;;;;27.45;12.07;;;;;;;9.94;37.28;97554.91;10410952;28;20048;-51
2023/04/07 12:26:45;;;;;;;;;;;;;;;9.81;36.73;97552.34;10409975;28;20080;-52
2023/04/07 12:31:44;;;;;;;15.87;10.77;;;;;;;10.01;37.56;97540.22;10410327;28;19974;-51
2023/04/07 12:36:43;;;;;;;;;;;;;;;9.75;37.64;97554.09;10406388;28;20082;-52
2023/04/07 12:41:44;;;;;;;13.55;9.23;;;;;;;9.82;37.31;97557.53;10404350;28;20306;-52
2023/04/07 12:46:43;;;;;;;16.05;11.60;;;;;;;10.02;37.17;97561.81;10406286;28;20076;-51
2023/04/07 12:51:42;;;;;;;13.95;10.13;;;;;;;9.45;36.61;97517.84;10406755;28;20028;-51
2023/04/07 12:56:41;;;;;;;12.63;8.73;;;;;;;9.73;36.75;97560.13;10407059;28;20024;-52
2023/04/07 13:01:40;;;;;;;12.57;9.50;;;;;;;10.08;36.75;97557.47;10405811;28;20516;-52
2023/04/07 13:06:39;;;;;;;16.35;11.75;;;;;;;9.01;37.37;97397.00;10406660;28;20119;-52
2023/04/07 13:11:38;;;;;;;12.90;9.80;;;;;;;10.34;36.54;97559.16;10406629;28;20031;-51
2023/04/07 13:16:37;;;;;;;12.82;9.90;;;;;;;10.24;37.17;97545.34;10404995;28;20009;-51
2023/04/07 13:21:36;;;;;;;24.35;15.80;;;;;;;10.08;37.36;97554.88;10406334;28;20072;-51
2023/04/07 13:26:35;;;;;;;13.88;10.98;;;;;;;9.41;38.88;97562.72;10405377;28;20033;-51
2023/04/07 13:31:34;;;;;;;;;;;;;;;9.11;40.46;97570.44;10404290;28;20051;-51
2023/04/07 13:36:34;;;;;;;13.32;9.10;;;;;;;9.08;40.08;97570.41;10398186;28;20015;-52
2023/04/07 13:41:34;;;;;;;13.00;9.23;;;;;;;8.81;40.68;97541.88;10399626;28;20417;-52
2023/04/07 13:46:33;;;;;;;24.70;16.42;;;;;;;8.75;42.50;97578.94;10398344;28;20143;-51
2023/04/07 13:51:32;;;;;;;17.45;12.15;;;;;;;8.71;42.19;97587.56;10398773;28;20036;-50
2023/04/07 13:56:34;;;;;;;17.00;11.57;;;;;;;8.83;41.26;97590.22;10399995;28;20039;-52
2023/04/07 14:01:34;;;;;;;16.52;12.00;;;;;;;9.00;41.01;97579.91;10401877;28;20075;-50
2023/04/07 14:06:35;;;;;;;20.30;14.70;;;;;;;9.21;40.54;97592.03;10401354;28;20155;-51
2023/04/07 14:11:35;;;;;;;20.58;13.10;;;;;;;9.58;40.90;97571.34;10403352;28;20501;-51
2023/04/07 14:16:34;;;;;;;16.90;12.70;;;;;;;10.12;38.72;97594.63;10408852;28;20512;-51
2023/04/07 14:21:33;;;;;;;13.68;10.10;;;;;;;10.16;37.30;97598.94;10408674;28;20560;-52
2023/04/07 14:26:31;;;;;;;16.80;11.75;;;;;;;10.03;38.05;97599.81;10408074;28;20111;-52
2023/04/07 14:31:30;;;;;;;15.68;11.85;;;;;;;9.84;38.02;97604.16;10408390;28;20040;-51
2023/04/07 14:36:30;;;;;;;15.20;12.10;;;;;;;9.67;39.07;97571.34;10408229;28;20146;-52
2023/04/07 14:41:29;;;;;;;15.25;11.38;;;;;;;9.60;38.76;97618.84;10408809;28;20500;-52
2023/04/07 14:46:28;;;;;;;16.05;11.57;;;;;;;9.62;38.92;97631.81;10407645;28;21222;-51
2023/04/07 14:51:27;;;;;;;20.75;12.63;;;;;;;9.65;39.63;97631.78;10407663;28;20041;-51
2023/04/07 14:56:26;;;;;;;14.60;10.52;;;;;;;9.69;38.66;97629.22;10407074;28;20064;-51
2023/04/07 15:01:25;;;;;;;;;;;;;;;9.55;39.57;97631.78;10407907;28;20060;-52
2023/04/07 15:06:25;;;;;;;13.40;9.73;;;;;;;9.42;39.98;97644.72;10422354;28;20423;-51
2023/04/07 15:11:25;;;;;;;15.90;11.60;;;;;;;9.58;39.67;97643.88;10408233;28;20483;-50
2023/04/07 15:16:24;;;;;;;24.85;11.98;;;;;;;9.82;40.79;97657.75;10405328;28;20578;-51
2023/04/07 15:21:23;;;;;;;17.63;12.32;;;;;;;9.90;41.48;97651.69;10405591;28;20059;-49
2023/04/07 15:26:22;;;;;;;19.02;13.13;;;;;;;9.97;41.85;97662.91;10405706;28;20064;-51
2023/04/07 15:31:22;;;;;;;20.25;14.98;;;;;;;9.91;43.21;97658.59;10406186;28;20304;-51
2023/04/07 15:36:21;;;;;;;20.02;14.65;;;;;;;9.70;43.25;97643.03;10405333;28;20060;-51
2023/04/07 15:41:20;;;;;;;18.58;12.68;;;;;;;9.67;43.58;97674.97;10404552;28;20036;-52
2023/04/07 15:46:19;;;;;;;22.83;14.90;;;;;;;9.39;46.01;97678.38;10403993;28;20481;-51
2023/04/07 15:51:18;;;;;;;17.98;13.82;;;;;;;9.25;46.47;97680.91;10404679;28;20458;-52
2023/04/07 15:56:17;;;;;;;20.63;15.35;;;;;;;9.15;47.14;97682.59;10404749;28;20032;-52
2023/04/07 16:01:16;;;;;;;19.17;14.45;;;;;;;8.94;47.59;97675.63;10404273;28;20406;-51
2023/04/07 16:06:15;;;;;;;17.73;13.73;;;;;;;8.66;48.00;97683.25;10404122;28;20067;-52
2023/04/07 16:11:15;;;;;;;23.20;13.57;;;;;;;8.59;49.23;97689.25;10403265;28;20032;-51
2023/04/07 16:16:14;;;;;;;19.75;13.88;;;;;;;8.64;49.09;97681.50;10403766;28;20063;-51
2023/04/07 16:21:14;;;;;;;19.30;14.75;;;;;;;8.06;49.43;97602.75;10403526;28;20021;-52
2023/04/07 16:26:13;;;;;;;22.92;15.25;;;;;;;8.70;49.54;97694.50;10402942;28;20115;-51
2023/04/07 16:31:11;;;;;;;22.13;15.63;;;;;;;8.64;49.10;97697.88;10402572;28;20158;-51
2023/04/07 16:36:10;;;;;;;18.60;13.25;;;;;;;8.49;49.91;97696.09;10404363;28;20028;-51
2023/04/07 16:41:09;;;;;;;20.52;13.73;;;;;;;8.22;49.59;97685.56;10406637;28;20040;-52
2023/04/07 16:46:08;;;;;;;18.10;13.85;;;;;;;8.30;49.88;97713.19;10406479;28;20116;-51
2023/04/07 16:51:07;;;;;;;20.40;15.05;;;;;;;8.25;50.22;97721.78;10404414;28;20131;-50
2023/04/07 16:56:17;;;;;;;19.00;14.13;;;;;;;8.19;50.04;97724.31;10405249;28;20047;-49
2023/04/07 17:01:17;;;;;;;18.95;15.05;;;;;;;8.12;49.51;97728.56;10406342;28;20070;-50
2023/04/07 17:06:16;;;;;;;24.58;16.85;;;;;;;7.85;50.31;97672.38;10405640;28;20557;-51
2023/04/07 17:11:15;;;;;;;21.55;15.70;;;;;;;7.46;50.17;97622.09;10405162;28;20433;-51
2023/04/07 17:16:14;;;;;;;22.58;18.52;;;;;;;8.20;50.88;97747.59;10404783;28;20040;-50
2023/04/07 17:21:14;;;;;;;39.10;26.15;;;;;;;7.63;52.67;97756.53;10404219;28;20056;-49
2023/04/07 17:26:13;;;;;;;24.13;17.73;;;;;;;7.44;53.07;97763.19;10402992;28;20079;-51
2023/04/07 17:31:12;;;;;;;30.08;20.88;;;;;;;7.58;52.18;97759.06;10405306;28;20079;-48
2023/04/07 17:36:11;;;;;;;35.92;25.33;;;;;;;7.63;52.47;97775.47;10402827;28;20136;-49
2023/04/07 17:41:11;;;;;;;35.83;23.55;;;;;;;7.77;52.15;97778.19;10400168;28;20147;-50
2023/04/07 17:46:10;;;;;;;38.70;25.85;;;;;;;7.79;52.48;97784.25;10402122;28;20646;-51
2023/04/07 17:51:09;;;;;;;34.03;23.75;;;;;;;7.30;52.52;97723.44;10409186;28;20029;-51
2023/04/07 17:56:08;;;;;;;19.70;13.85;;;;;;;7.47;52.40;97814.00;10409421;28;20079;-51
2023/04/07 18:01:09;;;;;;;35.47;25.65;;;;;;;7.27;52.85;97806.00;10408686;28;20040;-51
2023/04/07 18:06:08;;;;;;;28.38;19.50;;;;;;;7.37;53.10;97813.84;10409082;28;20072;-50
2023/04/07 18:11:07;;;;;;;29.92;21.60;;;;;;;7.23;54.01;97825.72;10408320;28;20492;-51
2023/04/07 18:16:08;;;;;;;20.88;16.65;;;;;;;7.36;55.00;97839.66;10408765;28;20508;-51
2023/04/07 18:21:07;;;;;;;20.95;15.40;;;;;;;7.35;55.02;97836.19;10408121;28;20063;-51
2023/04/07 18:26:06;;;;;;;23.30;16.42;;;;;;;7.49;56.03;97853.63;10407327;28;20083;-51
2023/04/07 18:31:06;;;;;;;18.33;14.35;;;;;;;7.49;55.92;97854.47;10361158;28;20055;-51
2023/04/07 18:36:06;;;;;;;25.70;17.58;;;;;;;7.48;55.88;97855.34;10407878;28;20155;-51
2023/04/07 18:41:06;;;;;;;23.45;16.10;;;;;;;7.49;56.18;97853.63;10407923;28;20068;-51
2023/04/07 18:46:05;;;;;;;23.10;17.45;;;;;;;7.52;55.75;97859.72;10406899;28;20540;-51
2023/04/07 18:51:05;;;;;;;26.05;17.92;;;;;;;7.48;55.66;97855.34;10407438;28;20199;-51
2023/04/07 18:56:04;;;;;;;24.65;17.67;;;;;;;7.55;56.27;97870.06;10404577;28;20076;-51
2023/04/07 19:01:03;;;;;;;31.58;21.50;;;;;;;7.58;55.69;97870.09;10425320;28;20032;-51
2023/04/07 19:06:02;;;;;;;31.65;21.48;;;;;;;7.56;55.18;97876.09;10406386;28;20036;-50
2023/04/07 19:11:01;;;;;;;28.38;21.17;;;;;;;7.43;55.72;97867.34;10408257;28;20064;-51
2023/04/07 19:16:01;;;;;;;30.00;20.30;;;;;;;7.31;55.27;97852.53;10404567;28;20131;-51
2023/04/07 19:21:00;;;;;;;30.88;21.60;;;;;;;7.41;55.26;97876.78;10407269;28;20501;-51
2023/04/07 19:25:59;;;;;;;23.95;18.20;;;;;;;7.33;55.72;97873.16;10403272;28;20584;-49
2023/04/07 19:30:58;;;;;;;25.20;18.02;;;;;;;7.27;56.12;97875.69;10391599;28;20148;-50
2023/04/07 19:35:57;;;;;;;21.77;16.27;;;;;;;7.26;56.83;97877.38;10406096;28;20496;-50
2023/04/07 19:40:56;;;;;;;20.25;14.88;;;;;;;7.10;57.11;97845.34;10406107;28;20075;-51
2023/04/07 19:45:56;;;;;;;23.30;16.98;;;;;;;7.13;56.53;97871.19;10404815;28;20044;-50
2023/04/07 19:50:55;;;;;;;22.08;16.58;;;;;;;7.13;57.45;97871.19;10406358;28;20064;-51
2023/04/07 19:55:54;;;;;;;24.98;17.63;;;;;;;7.09;57.44;97877.13;10405579;28;20166;-51
2023/04/07 20:00:53;;;;;;;22.27;16.75;;;;;;;7.08;57.36;97880.56;10405188;28;20162;-51
2023/04/07 20:05:53;;;;;;;31.60;22.65;;;;;;;7.02;57.73;97883.06;10404746;28;20072;-51
2023/04/07 20:10:52;;;;;;;;;;;;;;;6.95;57.63;97881.22;10404490;28;20545;-52
2023/04/07 20:15:52;;;;;;;;;;;;;;;7.00;57.73;97877.00;10405341;28;19912;-52
2023/04/07 20:20:56;;;;;;;;;;;;;;;7.04;57.57;97879.66;10387018;28;20409;-51
2023/04/07 20:25:55;;;;;;;;;;;;;;;7.08;58.78;97878.00;10402981;28;19996;-52
2023/04/07 20:30:54;;;;;;;;;;;;;;;7.10;58.05;97873.72;10404723;28;19947;-52
2023/04/07 20:35:53;;;;;;;;;;;;;;;7.06;57.87;97874.53;10404453;28;19912;-51
2023/04/07 20:40:52;;;;;;;;;;;;;;;7.03;57.57;97869.31;10404604;28;19912;-51
2023/04/07 20:45:51;;;;;;;;;;;;;;;7.00;57.71;97870.13;10403862;28;19923;-51
2023/04/07 20:50:50;;;;;;;;;;;;;;;7.00;58.50;97883.03;10403456;28;19962;-51
2023/04/07 20:55:49;;;;;;;;;;;;;;;6.98;57.88;97878.69;10403930;28;19913;-52
2023/04/07 21:00:53;;;;;;;;;;;;;;;6.88;57.64;97875.09;10402930;28;19919;-51
2023/04/07 21:05:52;;;;;;;;;;;;;;;6.85;59.15;97875.06;10402856;28;19962;-49
2023/04/07 21:10:52;;;;;;;;;;;;;;;6.77;59.83;97877.53;10402988;28;19924;-51
2023/04/07 21:15:50;;;;;;;;;;;;;;;6.71;59.96;97877.41;10402785;28;19966;-50
2023/04/07 21:20:49;;;;;;;;;;;;;;;6.34;61.57;97876.78;10402152;28;19909;-51
2023/04/07 21:25:48;;;;;;;;;;;;;;;6.13;63.54;97876.41;10400911;28;19917;-51
2023/04/07 21:30:48;;;;;;;;;;;;;;;6.24;62.62;97880.06;10438032;28;20298;-51
2023/04/07 21:35:46;;;;;;;;;;;;;;;6.36;63.30;97880.28;10443722;28;19955;-50
2023/04/07 21:40:45;;;;;;;;;;;;;;;6.45;63.38;97878.72;10443516;28;20011;-51
2023/04/07 21:45:45;;;;;;;;;;;;;;;6.44;63.25;97877.81;10443881;28;20284;-50
2023/04/07 21:50:44;;;;;;;;;;;;;;;6.43;62.89;97885.53;10442877;28;19970;-50
2023/04/07 21:55:43;;;;;;;;;;;;;;;6.42;63.56;97883.78;10443518;28;19920;-50
2023/04/07 22:00:42;;;;;;;;;;;;;;;6.44;63.57;97893.28;10443139;28;19960;-50
2023/04/07 22:05:40;;;;;;;;;;;;;;;6.48;63.25;97889.06;10441387;28;20737;-51
2023/04/07 22:10:39;;;;;;;;;;;;;;;6.49;63.20;97886.53;10439967;28;20010;-52
2023/04/07 22:15:38;;;;;;;;;;;;;;;6.52;62.79;97880.53;10440703;28;20059;-51
2023/04/07 22:20:37;;;;;;;;;;;;;;;6.59;62.06;97887.53;10441725;28;20290;-51
2023/04/07 22:25:35;;;;;;;;;;;;;;;6.54;62.32;97884.88;10434966;28;19966;-49
2023/04/07 22:30:34;;;;;;;;;;;;;;;6.51;62.06;97876.22;10400764;28;19970;-51
2023/04/07 22:35:33;;;;;;;;;;;;;;;6.52;62.69;97883.13;10410494;28;19963;-51
2023/04/07 22:40:32;;;;;;;;;;;;;;;6.52;63.04;97877.97;10412342;28;19912;-49
2023/04/07 22:45:30;;;;;;;;;;;;;;;6.53;62.75;97867.66;10412522;28;19919;-51
2023/04/07 22:50:29;;;;;;;;;;;;;;;6.52;62.77;97872.81;10412108;28;19917;-51
2023/04/07 22:55:28;;;;;;;;;;;;;;;6.43;62.96;97859.75;10411946;28;20002;-51
2023/04/07 23:00:27;;;;;;;;;;;;;;;6.42;63.33;97858.00;10410746;28;20081;-49
2023/04/07 23:05:26;;;;;;;;;;;;;;;6.34;64.85;97856.16;10411434;28;19917;-52
2023/04/07 23:10:25;;;;;;;;;;;;;;;6.10;66.52;97856.63;10410784;28;20394;-51
2023/04/07 23:15:23;;;;;;;;;;;;;;;5.81;67.90;97853.47;10411101;28;20384;-50
2023/04/07 23:20:22;;;;;;;;;;;;;;;5.75;67.85;97843.06;10445025;28;19912;-49
2023/04/07 23:25:21;;;;;;;;;;;;;;;5.85;67.66;97836.38;10445386;28;20317;-51
2023/04/07 23:30:20;;;;;;;;;;;;;;;5.84;67.65;97838.09;10409337;28;19922;-51